createdAt,value
2023-04-08T00:01:05.905Z,38.83
2023-04-08T00:03:33.216Z,34.67
2023-04-08T00:06:02.618Z,36.10
2023-04-08T00:08:30.634Z,36.17
2023-04-08T00:10:57.783Z,30.07
2023-04-08T00:13:24.829Z,30.77
2023-04-08T00:15:51.902Z,33.93
2023-04-08T00:18:19.148Z,37.57
2023-04-08T00:20:46.456Z,35.83
2023-04-08T00:23:13.526Z,38.60
2023-04-08T00:25:40.779Z,36.67
2023-04-08T00:28:07.974Z,41.47
2023-04-08T00:30:35.235Z,38.60
2023-04-08T00:33:02.624Z,41.27
2023-04-08T00:35:29.765Z,50.07
2023-04-08T00:37:56.898Z,45.37
2023-04-08T00:40:26.118Z,46.13
2023-04-08T00:42:53.230Z,41.33
2023-04-08T00:45:20.401Z,42.67
2023-04-08T00:47:52.404Z,50.90
2023-04-08T00:50:20.405Z,39.13
2023-04-08T00:52:47.600Z,45.13
2023-04-08T00:55:14.678Z,42.87
2023-04-08T00:57:42.403Z,44.20
2023-04-08T01:00:10.805Z,42.90
2023-04-08T01:03:08.448Z,44.03
2023-04-08T01:06:21.814Z,45.60
2023-04-08T01:08:51.702Z,41.63
2023-04-08T01:11:20.163Z,44.60
2023-04-08T01:13:49.491Z,52.10
2023-04-08T01:16:18.273Z,46.73
2023-04-08T01:18:46.325Z,40.93
2023-04-08T01:21:16.733Z,44.33
2023-04-08T01:24:26.993Z,47.10
2023-04-08T01:26:57.253Z,54.40
2023-04-08T01:29:26.242Z,40.30
2023-04-08T01:31:55.200Z,47.97
2023-04-08T01:34:24.370Z,41.77
2023-04-08T01:36:53.626Z,41.10
2023-04-08T01:39:21.642Z,49.53
2023-04-08T01:41:51.269Z,42.30
2023-04-08T01:44:20.797Z,40.20
2023-04-08T01:46:49.389Z,44.03
2023-04-08T01:49:17.308Z,40.47
2023-04-08T01:51:46.394Z,50.90
2023-04-08T01:54:13.502Z,43.27
2023-04-08T01:56:44.590Z,47.40
2023-04-08T01:59:17.238Z,40.23
2023-04-08T02:01:47.597Z,42.17
2023-04-08T02:04:15.046Z,41.40
2023-04-08T02:06:42.571Z,49.47
2023-04-08T02:09:09.650Z,38.17
2023-04-08T02:11:38.988Z,36.83
2023-04-08T02:14:06.361Z,40.17
2023-04-08T02:17:08.733Z,44.23
2023-04-08T02:20:14.939Z,43.00
2023-04-08T02:22:52.741Z,41.10
2023-04-08T02:25:25.752Z,39.43
2023-04-08T02:27:54.563Z,40.47
2023-04-08T02:30:24.933Z,45.20
2023-04-08T02:32:53.782Z,42.30
2023-04-08T02:35:21.485Z,42.47
2023-04-08T02:37:48.871Z,43.23
2023-04-08T02:40:35.752Z,46.77
2023-04-08T02:43:02.869Z,43.57
2023-04-08T02:45:44.237Z,47.37
2023-04-08T02:48:11.933Z,47.57
2023-04-08T02:50:40.618Z,42.10
2023-04-08T02:53:09.812Z,47.53
2023-04-08T02:55:36.938Z,45.37
2023-04-08T02:58:04.021Z,46.63
2023-04-08T03:00:31.335Z,47.87
2023-04-08T03:02:58.513Z,43.33
2023-04-08T03:05:26.944Z,39.93
2023-04-08T03:07:54.095Z,47.00
2023-04-08T03:10:21.234Z,47.37
2023-04-08T03:12:48.609Z,45.57
2023-04-08T03:15:15.937Z,48.27
2023-04-08T03:17:43.304Z,56.03
2023-04-08T03:20:11.272Z,57.90
2023-04-08T03:22:38.380Z,50.47
2023-04-08T03:25:06.307Z,39.43
2023-04-08T03:27:33.387Z,51.57
2023-04-08T03:30:00.841Z,46.77
2023-04-08T03:32:28.185Z,45.47
2023-04-08T03:34:55.281Z,47.93
2023-04-08T03:37:22.415Z,45.83
2023-04-08T03:39:53.307Z,45.50
2023-04-08T03:42:20.414Z,54.87
2023-04-08T03:44:47.553Z,51.33
2023-04-08T03:47:14.607Z,62.03
2023-04-08T03:49:41.708Z,46.00
2023-04-08T03:52:08.793Z,52.97
2023-04-08T03:54:35.880Z,49.23
2023-04-08T03:57:02.958Z,47.53
2023-04-08T03:59:30.177Z,47.57
2023-04-08T04:01:57.243Z,48.67
2023-04-08T04:04:25.416Z,49.80
2023-04-08T04:06:52.580Z,60.67
2023-04-08T04:09:19.772Z,49.10
2023-04-08T04:11:46.815Z,54.57
2023-04-08T04:14:13.891Z,47.30
2023-04-08T04:16:41.206Z,44.63
2023-04-08T04:19:08.360Z,48.67
2023-04-08T04:21:35.428Z,43.73
2023-04-08T04:24:02.532Z,47.00
2023-04-08T04:26:29.621Z,49.43
2023-04-08T04:28:56.739Z,48.77
2023-04-08T04:31:27.991Z,50.73
2023-04-08T04:33:55.199Z,47.80
2023-04-08T04:36:24.313Z,49.10
2023-04-08T04:38:52.029Z,51.13
2023-04-08T04:41:19.415Z,46.67
2023-04-08T04:43:46.894Z,57.50
2023-04-08T04:46:14.010Z,48.87
2023-04-08T04:48:41.584Z,47.67
2023-04-08T04:51:08.709Z,53.57
2023-04-08T04:53:35.855Z,56.37
2023-04-08T04:56:02.938Z,58.20
2023-04-08T04:58:30.711Z,61.13
2023-04-08T05:00:58.032Z,64.33
2023-04-08T05:03:25.354Z,52.93
2023-04-08T05:05:54.678Z,55.67
2023-04-08T05:08:22.378Z,57.47
2023-04-08T05:10:52.613Z,55.43
2023-04-08T05:13:19.787Z,66.37
2023-04-08T05:15:48.363Z,56.10
2023-04-08T05:18:15.521Z,60.67
2023-04-08T05:20:42.592Z,60.77
2023-04-08T05:23:09.768Z,64.97
2023-04-08T05:25:36.970Z,64.33
2023-04-08T05:28:04.613Z,65.17
2023-04-08T05:30:31.884Z,57.57
2023-04-08T05:33:00.540Z,66.90
2023-04-08T05:35:29.171Z,65.37
2023-04-08T05:37:56.329Z,63.47
2023-04-08T05:40:23.741Z,69.03
2023-04-08T05:42:52.865Z,71.17
2023-04-08T05:45:20.111Z,65.53
2023-04-08T05:47:49.459Z,67.80
2023-04-08T05:50:16.773Z,74.23
2023-04-08T05:52:45.372Z,72.47
2023-04-08T05:55:14.640Z,69.93
2023-04-08T05:57:42.099Z,63.47
2023-04-08T06:00:11.304Z,73.33
2023-04-08T06:02:39.152Z,74.43
2023-04-08T06:05:11.085Z,66.33
2023-04-08T06:07:40.317Z,71.80
2023-04-08T06:10:09.034Z,77.40
2023-04-08T06:12:38.656Z,80.23
2023-04-08T06:15:09.954Z,66.63
2023-04-08T06:17:38.608Z,70.27
2023-04-08T06:20:07.032Z,67.90
2023-04-08T06:22:38.566Z,68.57
2023-04-08T06:25:06.877Z,72.83
2023-04-08T06:27:34.057Z,71.17
2023-04-08T06:30:01.354Z,65.60
2023-04-08T06:32:28.429Z,64.83
2023-04-08T06:34:55.514Z,68.37
2023-04-08T06:37:22.616Z,68.60
2023-04-08T06:39:49.721Z,66.30
2023-04-08T06:42:16.749Z,72.30
2023-04-08T06:44:43.836Z,65.30
2023-04-08T06:47:11.000Z,60.67
2023-04-08T06:49:38.090Z,62.13
2023-04-08T06:52:06.757Z,66.40
2023-04-08T06:54:33.825Z,67.60
2023-04-08T06:57:01.166Z,64.33
2023-04-08T06:59:28.244Z,63.07
2023-04-08T07:01:55.355Z,53.43
2023-04-08T07:04:22.616Z,64.60
2023-04-08T07:06:50.205Z,61.97
2023-04-08T07:09:17.231Z,57.23
2023-04-08T07:11:44.458Z,64.70
2023-04-08T07:14:12.708Z,66.33
2023-04-08T07:16:39.832Z,60.80
2023-04-08T07:19:06.896Z,59.50
2023-04-08T07:21:34.598Z,59.33
2023-04-08T07:24:01.617Z,57.13
2023-04-08T07:26:28.774Z,60.23
2023-04-08T07:28:55.902Z,56.53
2023-04-08T07:31:24.480Z,59.33
2023-04-08T07:33:51.836Z,58.03
2023-04-08T07:36:18.925Z,57.87
2023-04-08T07:38:46.130Z,59.90
2023-04-08T07:41:13.343Z,60.77
2023-04-08T07:43:40.633Z,54.50
2023-04-08T07:46:09.138Z,52.40
2023-04-08T07:48:36.651Z,61.53
2023-04-08T07:51:08.196Z,59.13
2023-04-08T07:53:36.810Z,53.87
2023-04-08T07:56:10.295Z,61.20
2023-04-08T07:58:42.926Z,51.10
2023-04-08T08:01:19.738Z,52.17
2023-04-08T08:03:47.671Z,53.00
2023-04-08T08:06:15.743Z,45.37
2023-04-08T08:08:43.226Z,53.00
2023-04-08T08:11:10.478Z,56.47
2023-04-08T08:13:37.643Z,52.40
2023-04-08T08:16:08.670Z,48.40
2023-04-08T08:18:36.776Z,49.60
2023-04-08T08:21:04.141Z,51.43
2023-04-08T08:23:34.175Z,48.63
2023-04-08T08:26:04.026Z,52.00
2023-04-08T08:28:31.433Z,58.13
2023-04-08T08:30:59.555Z,51.90
2023-04-08T08:33:28.873Z,52.33
2023-04-08T08:35:57.910Z,54.70
2023-04-08T08:38:26.085Z,49.03
2023-04-08T08:41:00.774Z,52.37
2023-04-08T08:43:29.829Z,49.50
2023-04-08T08:45:56.995Z,41.60
2023-04-08T08:48:24.187Z,45.20
2023-04-08T08:50:51.565Z,45.23
2023-04-08T08:53:20.554Z,48.17
2023-04-08T08:58:19.068Z,47.00
2023-04-08T09:00:46.349Z,45.07
2023-04-08T09:03:27.625Z,48.13
2023-04-08T09:06:03.974Z,44.60
2023-04-08T09:08:40.381Z,45.03
2023-04-08T09:11:24.130Z,44.23
2023-04-08T09:13:51.443Z,46.50
2023-04-08T09:16:20.293Z,41.20
2023-04-08T09:18:49.417Z,43.10
2023-04-08T09:21:18.663Z,45.10
2023-04-08T09:23:49.940Z,38.23
2023-04-08T09:26:24.809Z,40.93
2023-04-08T09:29:25.440Z,42.37
2023-04-08T09:32:01.263Z,39.90
2023-04-08T09:34:32.285Z,41.87
2023-04-08T09:36:59.403Z,37.67
2023-04-08T09:39:26.503Z,38.30
2023-04-08T09:41:58.322Z,40.77
2023-04-08T09:44:29.175Z,36.67
2023-04-08T09:47:24.075Z,38.87
2023-04-08T09:50:05.630Z,38.83
2023-04-08T09:52:46.925Z,36.47
2023-04-08T09:55:17.644Z,36.53
2023-04-08T09:57:51.740Z,33.83
2023-04-08T10:00:19.855Z,37.13
2023-04-08T10:03:19.700Z,33.00
2023-04-08T10:05:48.752Z,31.90
2023-04-08T10:08:16.803Z,30.83
2023-04-08T10:10:45.612Z,33.97
2023-04-08T10:13:16.606Z,26.60
2023-04-08T10:15:47.994Z,29.60
2023-04-08T10:18:18.144Z,30.17
2023-04-08T10:20:49.292Z,32.93
2023-04-08T10:23:18.628Z,34.97
2023-04-08T10:25:49.353Z,30.83
2023-04-08T10:28:19.307Z,34.80
2023-04-08T10:30:55.947Z,32.60
2023-04-08T10:33:40.995Z,31.43
2023-04-08T10:36:15.215Z,29.97
2023-04-08T10:38:47.200Z,30.97
2023-04-08T10:41:34.202Z,29.00
2023-04-08T10:44:04.281Z,27.23
2023-04-08T10:46:38.569Z,29.33
2023-04-08T10:49:05.752Z,28.67
2023-04-08T10:51:36.762Z,31.10
2023-04-08T10:54:18.614Z,27.23
2023-04-08T10:56:53.696Z,30.17
2023-04-08T10:59:33.005Z,30.67
2023-04-08T11:02:01.439Z,28.83
2023-04-08T11:04:29.047Z,28.90
2023-04-08T11:06:56.313Z,26.83
2023-04-08T11:09:23.394Z,28.53
2023-04-08T11:11:52.324Z,26.63
2023-04-08T11:14:21.877Z,28.23
2023-04-08T11:16:49.141Z,28.90
2023-04-08T11:19:16.725Z,27.20
2023-04-08T11:21:43.945Z,29.20
2023-04-08T11:24:13.289Z,28.00
2023-04-08T11:26:44.902Z,22.63
2023-04-08T11:29:14.413Z,24.87
2023-04-08T11:31:43.873Z,24.70
2023-04-08T11:34:11.351Z,25.13
2023-04-08T11:36:42.756Z,25.20
2023-04-08T11:39:12.004Z,25.10
2023-04-08T11:41:43.368Z,25.03
2023-04-08T11:44:10.669Z,23.80
2023-04-08T11:46:55.062Z,26.60
2023-04-08T11:49:22.264Z,26.07
2023-04-08T11:52:00.307Z,25.50
2023-04-08T11:54:33.013Z,29.67
2023-04-08T11:57:01.011Z,25.23
2023-04-08T11:59:29.517Z,22.50
2023-04-08T12:01:57.037Z,24.27
2023-04-08T12:04:24.165Z,28.67
2023-04-08T12:06:52.360Z,22.13
2023-04-08T12:09:19.878Z,20.60
2023-04-08T12:11:47.105Z,21.93
2023-04-08T12:14:15.675Z,21.70
2023-04-08T12:16:42.976Z,21.27
2023-04-08T12:19:10.289Z,21.77
2023-04-08T12:21:38.368Z,20.10
2023-04-08T12:24:06.015Z,19.53
2023-04-08T12:26:33.525Z,20.87
2023-04-08T12:29:00.728Z,19.83
2023-04-08T12:31:28.387Z,21.03
2023-04-08T12:33:55.620Z,25.90
2023-04-08T12:36:22.891Z,21.10
2023-04-08T12:38:50.307Z,19.77
2023-04-08T12:41:17.809Z,20.17
2023-04-08T12:43:45.179Z,17.50
2023-04-08T12:46:12.836Z,19.03
2023-04-08T12:48:40.856Z,19.27
2023-04-08T12:51:10.870Z,17.57
2023-04-08T12:53:38.055Z,15.47
2023-04-08T12:56:05.825Z,13.90
2023-04-08T12:58:33.182Z,15.93
2023-04-08T13:01:00.306Z,14.90
2023-04-08T13:03:30.367Z,16.92
2023-04-08T13:05:59.131Z,14.00
2023-04-08T13:08:26.450Z,13.88
2023-04-08T13:10:54.749Z,14.20
2023-04-08T13:13:22.000Z,12.70
2023-04-08T13:15:49.454Z,13.52
2023-04-08T13:18:16.613Z,14.93
2023-04-08T13:20:45.691Z,15.00
2023-04-08T13:23:14.465Z,12.07
2023-04-08T13:25:41.840Z,13.73
2023-04-08T13:28:08.873Z,11.07
2023-04-08T13:30:37.150Z,12.38
2023-04-08T13:33:04.475Z,12.55
2023-04-08T13:35:31.827Z,14.07
2023-04-08T13:37:58.892Z,9.18
2023-04-08T13:40:28.340Z,9.95
2023-04-08T13:42:55.824Z,12.05
2023-04-08T13:45:23.120Z,10.95
2023-04-08T13:47:50.354Z,11.27
2023-04-08T13:50:17.608Z,12.80
2023-04-08T13:52:44.672Z,16.48
2023-04-08T13:55:14.483Z,14.02
2023-04-08T13:57:44.712Z,10.47
2023-04-08T14:00:12.921Z,10.67
2023-04-08T14:02:40.516Z,9.13
2023-04-08T14:05:08.379Z,8.90
2023-04-08T14:07:37.740Z,11.05
2023-04-08T14:10:05.777Z,7.93
2023-04-08T14:12:32.985Z,7.38
2023-04-08T14:15:00.267Z,7.93
2023-04-08T14:17:27.414Z,8.20
2023-04-08T14:19:54.611Z,8.10
2023-04-08T14:22:21.660Z,7.75
2023-04-08T14:24:51.699Z,9.25
2023-04-08T14:27:18.870Z,8.05
2023-04-08T14:29:46.072Z,9.52
2023-04-08T14:32:13.188Z,9.68
2023-04-08T14:34:41.974Z,9.07
2023-04-08T14:37:12.737Z,10.80
2023-04-08T14:39:39.839Z,10.50
2023-04-08T14:42:06.877Z,9.68
2023-04-08T14:44:36.743Z,10.27
2023-04-08T14:47:06.529Z,10.70
2023-04-08T14:49:33.648Z,11.27
2023-04-08T14:52:01.484Z,8.55
2023-04-08T14:54:28.531Z,8.40
2023-04-08T14:56:56.033Z,9.35
2023-04-08T14:59:23.170Z,9.43
2023-04-08T15:01:50.431Z,10.75
2023-04-08T15:04:17.608Z,9.68
2023-04-08T15:06:44.779Z,9.90
2023-04-08T15:09:17.978Z,9.00
2023-04-08T15:11:49.479Z,10.82
2023-04-08T15:14:16.510Z,16.02
2023-04-08T15:16:45.243Z,28.13
2023-04-08T15:19:12.413Z,12.68
2023-04-08T15:21:39.643Z,17.85
2023-04-08T15:24:06.768Z,17.67
2023-04-08T15:26:34.083Z,22.10
2023-04-08T15:29:01.447Z,21.77
2023-04-08T15:31:28.546Z,13.32
2023-04-08T15:33:56.273Z,21.17
2023-04-08T15:36:23.303Z,11.13
2023-04-08T15:38:50.557Z,12.38
2023-04-08T15:41:23.818Z,10.18
2023-04-08T15:43:53.034Z,12.23
2023-04-08T15:46:21.378Z,11.80
2023-04-08T15:48:49.671Z,9.68
2023-04-08T15:51:17.472Z,11.43
2023-04-08T15:53:44.826Z,10.45
2023-04-08T15:56:16.468Z,24.45
2023-04-08T15:58:45.585Z,17.98
2023-04-08T16:01:13.130Z,11.80
2023-04-08T16:03:40.985Z,9.77
2023-04-08T16:06:08.776Z,8.23
2023-04-08T16:08:37.053Z,8.70
2023-04-08T16:11:07.898Z,12.03
2023-04-08T16:13:35.371Z,17.80
2023-04-08T16:16:03.648Z,14.47
2023-04-08T16:18:31.346Z,10.87
2023-04-08T16:20:58.644Z,13.40
2023-04-08T16:23:25.793Z,10.53
2023-04-08T16:25:52.894Z,10.97
2023-04-08T16:28:20.013Z,10.93
2023-04-08T16:30:47.833Z,13.87
2023-04-08T16:33:15.961Z,10.87
2023-04-08T16:35:43.047Z,10.57
2023-04-08T16:38:10.198Z,13.33
2023-04-08T16:40:39.109Z,37.50
2023-04-08T16:43:06.646Z,39.57
2023-04-08T16:45:33.819Z,40.10
2023-04-08T16:48:01.056Z,40.13
2023-04-08T16:50:28.616Z,32.43
2023-04-08T16:52:55.960Z,23.03
2023-04-08T16:55:24.274Z,19.40
2023-04-08T16:57:51.445Z,16.87
2023-04-08T17:00:20.995Z,12.93
2023-04-08T17:02:48.446Z,12.87
2023-04-08T17:05:16.147Z,11.90
2023-04-08T17:07:43.236Z,15.33
2023-04-08T17:10:10.786Z,13.33
2023-04-08T17:12:37.856Z,11.53
2023-04-08T17:15:05.925Z,15.90
2023-04-08T17:17:33.091Z,14.30
2023-04-08T17:20:00.293Z,13.20
2023-04-08T17:22:27.400Z,17.33
2023-04-08T17:24:54.651Z,16.47
2023-04-08T17:27:22.165Z,19.57
2023-04-08T17:29:57.444Z,20.57
2023-04-08T17:32:25.704Z,19.20
2023-04-08T17:34:53.651Z,22.27
2023-04-08T17:37:21.874Z,20.70
2023-04-08T17:39:48.985Z,23.43
2023-04-08T17:42:16.887Z,23.53
2023-04-08T17:44:44.734Z,23.07
2023-04-08T17:47:11.834Z,23.40
2023-04-08T17:49:40.184Z,22.53
2023-04-08T17:52:07.328Z,24.43
2023-04-08T17:54:34.677Z,22.77
2023-04-08T17:57:01.841Z,23.70
2023-04-08T17:59:29.000Z,28.80
2023-04-08T18:01:56.172Z,28.27
2023-04-08T18:04:23.733Z,27.33
2023-04-08T18:06:50.874Z,27.30
2023-04-08T18:09:17.904Z,28.70
2023-04-08T18:11:44.993Z,27.70
2023-04-08T18:14:13.286Z,24.33
2023-04-08T18:16:40.433Z,25.83
2023-04-08T18:19:07.524Z,26.93
2023-04-08T18:21:34.590Z,26.20
2023-04-08T18:24:01.859Z,28.40
2023-04-08T18:26:28.990Z,27.73
2023-04-08T18:28:56.109Z,28.40
2023-04-08T18:31:24.267Z,26.90
2023-04-08T18:33:53.912Z,29.00
2023-04-08T18:36:22.363Z,30.07
2023-04-08T18:38:49.492Z,32.47
2023-04-08T18:41:17.702Z,34.10
2023-04-08T18:43:44.724Z,32.27
2023-04-08T18:46:11.858Z,34.60
2023-04-08T18:48:39.003Z,35.77
2023-04-08T18:51:06.329Z,32.37
2023-04-08T18:53:33.606Z,29.60
2023-04-08T18:56:00.778Z,29.43
2023-04-08T18:58:27.883Z,33.67
2023-04-08T19:00:56.387Z,29.10
2023-04-08T19:03:24.360Z,27.47
2023-04-08T19:05:51.583Z,28.23
2023-04-08T19:08:18.702Z,28.97
2023-04-08T19:10:45.773Z,28.60
2023-04-08T19:13:12.838Z,29.57
2023-04-08T19:15:39.904Z,30.30
2023-04-08T19:18:07.149Z,29.13
2023-04-08T19:20:34.568Z,27.90
2023-04-08T19:23:01.617Z,27.33
2023-04-08T19:25:28.728Z,27.63
2023-04-08T19:27:56.112Z,26.37
2023-04-08T19:30:23.202Z,27.27
2023-04-08T19:32:50.365Z,26.10
2023-04-08T19:35:17.618Z,27.00
2023-04-08T19:37:44.677Z,28.43
2023-04-08T19:40:11.994Z,28.23
2023-04-08T19:42:39.085Z,27.17
2023-04-08T19:45:06.989Z,29.70
2023-04-08T19:47:36.160Z,24.13
2023-04-08T19:50:03.430Z,28.60
2023-04-08T19:52:32.187Z,26.33
2023-04-08T19:54:59.252Z,28.97
2023-04-08T19:57:26.360Z,28.63
2023-04-08T19:59:54.269Z,29.73
2023-04-08T20:02:22.066Z,27.27
2023-04-08T20:04:52.338Z,29.60
2023-04-08T20:07:19.407Z,29.70
2023-04-08T20:09:48.463Z,33.90
2023-04-08T20:12:15.590Z,34.63
2023-04-08T20:14:44.035Z,31.70
2023-04-08T20:17:12.325Z,30.50
2023-04-08T20:19:40.205Z,27.57
2023-04-08T20:22:07.335Z,30.67
2023-04-08T20:24:34.567Z,29.73
2023-04-08T20:27:01.658Z,29.50
2023-04-08T20:29:30.981Z,31.10
2023-04-08T20:31:58.684Z,30.27
2023-04-08T20:34:26.249Z,30.00
2023-04-08T20:36:53.344Z,31.67
2023-04-08T20:39:20.507Z,28.07
2023-04-08T20:41:47.652Z,29.80
2023-04-08T20:44:14.696Z,29.73
2023-04-08T20:46:44.464Z,29.40
2023-04-08T20:49:13.181Z,30.07
2023-04-08T20:51:42.030Z,32.30
2023-04-08T20:54:09.076Z,32.40
2023-04-08T20:56:36.415Z,28.50
2023-04-08T20:59:03.459Z,34.90
2023-04-08T21:01:30.983Z,31.07
2023-04-08T21:03:58.329Z,31.07
2023-04-08T21:06:27.532Z,30.27
2023-04-08T21:08:54.700Z,30.90
2023-04-08T21:11:22.059Z,32.37
2023-04-08T21:13:49.409Z,30.60
2023-04-08T21:16:16.671Z,30.43
2023-04-08T21:18:43.902Z,30.70
2023-04-08T21:21:14.197Z,29.93
2023-04-08T21:23:41.413Z,32.47
2023-04-08T21:26:14.104Z,29.60
2023-04-08T21:28:41.411Z,30.47
2023-04-08T21:31:13.313Z,27.67
2023-04-08T21:33:40.928Z,32.70
2023-04-08T21:36:08.209Z,29.77
2023-04-08T21:38:35.961Z,30.33
2023-04-08T21:41:03.105Z,31.37
2023-04-08T21:43:30.396Z,31.03
2023-04-08T21:45:57.627Z,33.73
2023-04-08T21:48:24.764Z,31.67
2023-04-08T21:50:51.928Z,32.83
2023-04-08T21:53:20.534Z,30.90
2023-04-08T21:55:48.021Z,33.20
2023-04-08T21:58:16.473Z,31.73
2023-04-08T22:00:43.620Z,34.37
2023-04-08T22:03:10.917Z,33.43
2023-04-08T22:05:38.130Z,34.03
2023-04-08T22:08:05.601Z,33.60
2023-04-08T22:10:32.632Z,34.97
2023-04-08T22:12:59.697Z,33.27
2023-04-08T22:15:26.840Z,33.33
2023-04-08T22:17:53.995Z,35.23
2023-04-08T22:20:21.244Z,36.30
2023-04-08T22:22:48.264Z,39.67
2023-04-08T22:25:15.369Z,37.47
2023-04-08T22:27:42.403Z,36.40
2023-04-08T22:30:10.485Z,35.87
2023-04-08T22:32:37.656Z,35.23
2023-04-08T22:35:05.753Z,37.17
2023-04-08T22:37:33.145Z,33.23
2023-04-08T22:40:01.046Z,32.27
2023-04-08T22:42:28.309Z,34.63
2023-04-08T22:44:55.753Z,34.87
2023-04-08T22:47:22.959Z,33.70
2023-04-08T22:49:50.347Z,38.90
2023-04-08T22:52:17.450Z,38.40
2023-04-08T22:54:44.579Z,40.53
2023-04-08T22:57:11.691Z,37.63
2023-04-08T22:59:38.763Z,34.40
2023-04-08T23:02:05.915Z,33.93
2023-04-08T23:04:36.032Z,39.13
2023-04-08T23:07:03.109Z,35.10
2023-04-08T23:09:30.384Z,38.37
2023-04-08T23:11:58.169Z,39.23
2023-04-08T23:14:25.324Z,40.20
2023-04-08T23:16:52.498Z,38.53
2023-04-08T23:19:19.532Z,41.97
2023-04-08T23:21:46.630Z,40.23
2023-04-08T23:24:13.785Z,33.33
2023-04-08T23:26:41.275Z,35.47
2023-04-08T23:29:08.378Z,38.60
2023-04-08T23:31:35.604Z,32.30
2023-04-08T23:34:02.984Z,31.03
2023-04-08T23:36:31.022Z,32.90
2023-04-08T23:38:58.088Z,26.60
2023-04-08T23:41:25.469Z,27.07
2023-04-08T23:43:52.733Z,32.03
2023-04-08T23:46:19.820Z,36.50
2023-04-08T23:48:47.224Z,38.50
2023-04-08T23:51:14.292Z,31.43
2023-04-08T23:53:41.598Z,33.20
2023-04-08T23:56:10.365Z,29.07
2023-04-08T23:58:39.652Z,32.13
